sensor_id;sensor_type;location;lat;lon;timestamp;temperature;humidity
3736;DHT22;1883;48.202;16.310;2024-01-07T00:00:33;2.80;45.30
3736;DHT22;1883;48.202;16.310;2024-01-07T00:03:00;2.90;45.40
3736;DHT22;1883;48.202;16.310;2024-01-07T00:05:28;2.80;45.40
3736;DHT22;1883;48.202;16.310;2024-01-07T00:07:54;2.70;45.40
3736;DHT22;1883;48.202;16.310;2024-01-07T00:10:22;2.70;45.40
3736;DHT22;1883;48.202;16.310;2024-01-07T00:12:50;2.70;45.50
3736;DHT22;1883;48.202;16.310;2024-01-07T00:15:18;2.60;45.50
3736;DHT22;1883;48.202;16.310;2024-01-07T00:17:47;2.70;45.50
3736;DHT22;1883;48.202;16.310;2024-01-07T00:20:15;2.70;45.60
3736;DHT22;1883;48.202;16.310;2024-01-07T00:22:42;2.60;45.60
3736;DHT22;1883;48.202;16.310;2024-01-07T00:25:16;2.60;45.60
3736;DHT22;1883;48.202;16.310;2024-01-07T00:27:44;2.70;45.70
3736;DHT22;1883;48.202;16.310;2024-01-07T00:30:11;2.60;45.70
3736;DHT22;1883;48.202;16.310;2024-01-07T00:32:39;2.60;45.60
3736;DHT22;1883;48.202;16.310;2024-01-07T00:35:08;2.60;45.70
3736;DHT22;1883;48.202;16.310;2024-01-07T00:37:35;2.60;45.70
3736;DHT22;1883;48.202;16.310;2024-01-07T00:40:04;2.60;45.70
3736;DHT22;1883;48.202;16.310;2024-01-07T00:42:34;2.60;45.70
3736;DHT22;1883;48.202;16.310;2024-01-07T00:45:03;2.50;45.60
3736;DHT22;1883;48.202;16.310;2024-01-07T00:47:31;2.40;45.70
3736;DHT22;1883;48.202;16.310;2024-01-07T00:49:58;2.40;45.60
3736;DHT22;1883;48.202;16.310;2024-01-07T00:52:27;2.40;45.50
3736;DHT22;1883;48.202;16.310;2024-01-07T00:54:57;2.40;45.60
3736;DHT22;1883;48.202;16.310;2024-01-07T00:57:24;2.30;45.50
3736;DHT22;1883;48.202;16.310;2024-01-07T00:59:51;2.30;45.30
3736;DHT22;1883;48.202;16.310;2024-01-07T01:02:18;2.30;45.50
3736;DHT22;1883;48.202;16.310;2024-01-07T01:04:46;2.20;45.50
3736;DHT22;1883;48.202;16.310;2024-01-07T01:07:14;2.20;45.40
3736;DHT22;1883;48.202;16.310;2024-01-07T01:09:42;2.20;45.50
3736;DHT22;1883;48.202;16.310;2024-01-07T01:12:12;2.20;45.40
3736;DHT22;1883;48.202;16.310;2024-01-07T01:14:39;2.20;45.30
3736;DHT22;1883;48.202;16.310;2024-01-07T01:17:06;2.20;45.40
3736;DHT22;1883;48.202;16.310;2024-01-07T01:19:34;2.20;45.40
3736;DHT22;1883;48.202;16.310;2024-01-07T01:22:03;2.20;45.40
3736;DHT22;1883;48.202;16.310;2024-01-07T01:24:46;2.20;45.50
3736;DHT22;1883;48.202;16.310;2024-01-07T01:27:14;2.10;45.50
3736;DHT22;1883;48.202;16.310;2024-01-07T01:29:42;2.20;45.60
3736;DHT22;1883;48.202;16.310;2024-01-07T01:32:10;2.10;45.50
3736;DHT22;1883;48.202;16.310;2024-01-07T01:34:37;2.10;45.60
3736;DHT22;1883;48.202;16.310;2024-01-07T01:37:04;2.20;45.60
3736;DHT22;1883;48.202;16.310;2024-01-07T01:39:31;2.20;45.60
3736;DHT22;1883;48.202;16.310;2024-01-07T01:41:59;2.20;45.60
3736;DHT22;1883;48.202;16.310;2024-01-07T01:44:26;2.20;45.60
3736;DHT22;1883;48.202;16.310;2024-01-07T01:46:54;2.20;45.60
3736;DHT22;1883;48.202;16.310;2024-01-07T01:49:22;2.20;45.50
3736;DHT22;1883;48.202;16.310;2024-01-07T01:51:51;2.10;45.50
3736;DHT22;1883;48.202;16.310;2024-01-07T01:54:19;2.20;45.40
3736;DHT22;1883;48.202;16.310;2024-01-07T01:56:46;2.10;45.40
3736;DHT22;1883;48.202;16.310;2024-01-07T01:59:15;2.10;45.40
3736;DHT22;1883;48.202;16.310;2024-01-07T02:01:42;2.10;45.40
3736;DHT22;1883;48.202;16.310;2024-01-07T02:04:10;2.10;45.40
3736;DHT22;1883;48.202;16.310;2024-01-07T02:06:37;2.10;45.30
3736;DHT22;1883;48.202;16.310;2024-01-07T02:09:04;2.20;45.30
3736;DHT22;1883;48.202;16.310;2024-01-07T02:11:31;2.10;45.20
3736;DHT22;1883;48.202;16.310;2024-01-07T02:13:58;2.10;45.20
3736;DHT22;1883;48.202;16.310;2024-01-07T02:16:27;2.10;45.20
3736;DHT22;1883;48.202;16.310;2024-01-07T02:18:54;2.10;45.20
3736;DHT22;1883;48.202;16.310;2024-01-07T02:21:21;2.10;45.20
3736;DHT22;1883;48.202;16.310;2024-01-07T02:23:48;2.10;45.20
3736;DHT22;1883;48.202;16.310;2024-01-07T02:26:16;2.10;45.20
3736;DHT22;1883;48.202;16.310;2024-01-07T02:28:45;2.00;45.20
3736;DHT22;1883;48.202;16.310;2024-01-07T02:31:14;2.10;45.10
3736;DHT22;1883;48.202;16.310;2024-01-07T02:33:42;2.10;45.00
3736;DHT22;1883;48.202;16.310;2024-01-07T02:36:09;2.10;45.10
3736;DHT22;1883;48.202;16.310;2024-01-07T02:38:36;2.10;45.10
3736;DHT22;1883;48.202;16.310;2024-01-07T02:41:03;2.10;45.00
3736;DHT22;1883;48.202;16.310;2024-01-07T02:43:32;2.00;45.30
3736;DHT22;1883;48.202;16.310;2024-01-07T02:45:59;1.90;45.30
3736;DHT22;1883;48.202;16.310;2024-01-07T02:48:26;1.90;45.30
3736;DHT22;1883;48.202;16.310;2024-01-07T02:50:53;1.90;45.50
3736;DHT22;1883;48.202;16.310;2024-01-07T02:53:20;1.90;45.50
3736;DHT22;1883;48.202;16.310;2024-01-07T02:55:47;1.80;45.40
3736;DHT22;1883;48.202;16.310;2024-01-07T02:58:14;1.80;45.40
3736;DHT22;1883;48.202;16.310;2024-01-07T03:00:44;1.70;45.40
3736;DHT22;1883;48.202;16.310;2024-01-07T03:03:11;1.80;45.50
3736;DHT22;1883;48.202;16.310;2024-01-07T03:05:38;1.80;45.60
3736;DHT22;1883;48.202;16.310;2024-01-07T03:08:06;1.80;45.60
3736;DHT22;1883;48.202;16.310;2024-01-07T03:10:33;1.80;45.70
3736;DHT22;1883;48.202;16.310;2024-01-07T03:13:01;1.80;45.60
3736;DHT22;1883;48.202;16.310;2024-01-07T03:15:28;1.70;45.80
3736;DHT22;1883;48.202;16.310;2024-01-07T03:17:58;1.70;45.80
3736;DHT22;1883;48.202;16.310;2024-01-07T03:20:26;1.80;45.70
3736;DHT22;1883;48.202;16.310;2024-01-07T03:22:53;1.70;45.70
3736;DHT22;1883;48.202;16.310;2024-01-07T03:25:24;1.80;45.60
3736;DHT22;1883;48.202;16.310;2024-01-07T03:27:51;1.70;45.60
3736;DHT22;1883;48.202;16.310;2024-01-07T03:30:18;1.80;45.50
3736;DHT22;1883;48.202;16.310;2024-01-07T03:32:47;1.70;45.60
3736;DHT22;1883;48.202;16.310;2024-01-07T03:35:17;1.70;45.50
3736;DHT22;1883;48.202;16.310;2024-01-07T03:37:45;1.70;45.50
3736;DHT22;1883;48.202;16.310;2024-01-07T03:40:12;1.60;45.40
3736;DHT22;1883;48.202;16.310;2024-01-07T03:42:38;1.60;45.40
3736;DHT22;1883;48.202;16.310;2024-01-07T03:45:07;1.60;45.40
3736;DHT22;1883;48.202;16.310;2024-01-07T03:47:34;1.60;45.50
3736;DHT22;1883;48.202;16.310;2024-01-07T03:50:01;1.60;45.70
3736;DHT22;1883;48.202;16.310;2024-01-07T03:52:30;1.60;45.90
3736;DHT22;1883;48.202;16.310;2024-01-07T03:54:58;1.60;46.00
3736;DHT22;1883;48.202;16.310;2024-01-07T03:57:25;1.60;46.10
3736;DHT22;1883;48.202;16.310;2024-01-07T03:59:52;1.50;46.10
3736;DHT22;1883;48.202;16.310;2024-01-07T04:02:19;1.50;46.00
3736;DHT22;1883;48.202;16.310;2024-01-07T04:04:47;1.50;45.90
3736;DHT22;1883;48.202;16.310;2024-01-07T04:07:14;1.50;45.80
3736;DHT22;1883;48.202;16.310;2024-01-07T04:09:44;1.50;45.70
3736;DHT22;1883;48.202;16.310;2024-01-07T04:12:11;1.50;45.70
3736;DHT22;1883;48.202;16.310;2024-01-07T04:14:38;1.50;45.70
3736;DHT22;1883;48.202;16.310;2024-01-07T04:17:05;1.40;45.80
3736;DHT22;1883;48.202;16.310;2024-01-07T04:19:35;1.40;45.70
3736;DHT22;1883;48.202;16.310;2024-01-07T04:22:03;1.40;45.80
3736;DHT22;1883;48.202;16.310;2024-01-07T04:24:30;1.40;45.80
3736;DHT22;1883;48.202;16.310;2024-01-07T04:26:58;1.40;45.90
3736;DHT22;1883;48.202;16.310;2024-01-07T04:29:25;1.30;45.70
3736;DHT22;1883;48.202;16.310;2024-01-07T04:31:52;1.30;45.80
3736;DHT22;1883;48.202;16.310;2024-01-07T04:34:18;1.30;45.70
3736;DHT22;1883;48.202;16.310;2024-01-07T04:36:45;1.20;45.60
3736;DHT22;1883;48.202;16.310;2024-01-07T04:39:13;1.30;45.50
3736;DHT22;1883;48.202;16.310;2024-01-07T04:41:40;1.30;45.50
3736;DHT22;1883;48.202;16.310;2024-01-07T04:44:08;1.30;45.40
3736;DHT22;1883;48.202;16.310;2024-01-07T04:46:38;1.20;45.30
3736;DHT22;1883;48.202;16.310;2024-01-07T04:49:05;1.20;45.30
3736;DHT22;1883;48.202;16.310;2024-01-07T04:51:32;1.30;45.20
3736;DHT22;1883;48.202;16.310;2024-01-07T04:54:00;1.20;45.30
3736;DHT22;1883;48.202;16.310;2024-01-07T04:56:27;1.20;45.30
3736;DHT22;1883;48.202;16.310;2024-01-07T04:58:54;1.20;45.20
3736;DHT22;1883;48.202;16.310;2024-01-07T05:01:22;1.20;45.20
3736;DHT22;1883;48.202;16.310;2024-01-07T05:03:49;1.20;45.20
3736;DHT22;1883;48.202;16.310;2024-01-07T05:06:16;1.20;45.30
3736;DHT22;1883;48.202;16.310;2024-01-07T05:08:43;1.20;45.30
3736;DHT22;1883;48.202;16.310;2024-01-07T05:11:10;1.20;45.30
3736;DHT22;1883;48.202;16.310;2024-01-07T05:13:38;1.10;45.30
3736;DHT22;1883;48.202;16.310;2024-01-07T05:16:06;1.10;45.30
3736;DHT22;1883;48.202;16.310;2024-01-07T05:18:34;1.10;45.40
3736;DHT22;1883;48.202;16.310;2024-01-07T05:21:01;1.10;45.40
3736;DHT22;1883;48.202;16.310;2024-01-07T05:23:28;1.10;45.40
3736;DHT22;1883;48.202;16.310;2024-01-07T05:25:56;1.10;45.40
3736;DHT22;1883;48.202;16.310;2024-01-07T05:28:23;1.10;45.40
3736;DHT22;1883;48.202;16.310;2024-01-07T05:30:49;1.10;45.30
3736;DHT22;1883;48.202;16.310;2024-01-07T05:33:17;1.00;45.30
3736;DHT22;1883;48.202;16.310;2024-01-07T05:36:12;1.00;45.30
3736;DHT22;1883;48.202;16.310;2024-01-07T05:38:53;1.00;45.30
3736;DHT22;1883;48.202;16.310;2024-01-07T05:41:37;1.00;45.20
3736;DHT22;1883;48.202;16.310;2024-01-07T05:44:07;1.00;45.20
3736;DHT22;1883;48.202;16.310;2024-01-07T05:46:37;1.00;45.20
3736;DHT22;1883;48.202;16.310;2024-01-07T05:49:04;1.00;45.10
3736;DHT22;1883;48.202;16.310;2024-01-07T05:51:40;0.90;45.10
3736;DHT22;1883;48.202;16.310;2024-01-07T05:54:09;0.90;45.10
3736;DHT22;1883;48.202;16.310;2024-01-07T05:56:39;0.90;45.00
3736;DHT22;1883;48.202;16.310;2024-01-07T05:59:08;0.90;44.90
3736;DHT22;1883;48.202;16.310;2024-01-07T06:01:35;0.80;45.10
3736;DHT22;1883;48.202;16.310;2024-01-07T06:04:02;0.80;45.20
3736;DHT22;1883;48.202;16.310;2024-01-07T06:06:29;0.80;45.20
3736;DHT22;1883;48.202;16.310;2024-01-07T06:08:58;0.80;45.30
3736;DHT22;1883;48.202;16.310;2024-01-07T06:11:32;0.90;45.40
3736;DHT22;1883;48.202;16.310;2024-01-07T06:13:59;0.80;45.50
3736;DHT22;1883;48.202;16.310;2024-01-07T06:16:26;0.80;45.70
3736;DHT22;1883;48.202;16.310;2024-01-07T06:18:53;0.80;45.60
3736;DHT22;1883;48.202;16.310;2024-01-07T06:21:20;0.80;45.70
3736;DHT22;1883;48.202;16.310;2024-01-07T06:23:48;0.70;45.70
3736;DHT22;1883;48.202;16.310;2024-01-07T06:26:17;0.70;45.80
3736;DHT22;1883;48.202;16.310;2024-01-07T06:28:44;0.70;45.90
3736;DHT22;1883;48.202;16.310;2024-01-07T06:31:11;0.70;46.00
3736;DHT22;1883;48.202;16.310;2024-01-07T06:33:38;0.70;45.80
3736;DHT22;1883;48.202;16.310;2024-01-07T06:36:11;0.60;45.90
3736;DHT22;1883;48.202;16.310;2024-01-07T06:38:43;0.60;45.90
3736;DHT22;1883;48.202;16.310;2024-01-07T06:41:10;0.60;45.90
3736;DHT22;1883;48.202;16.310;2024-01-07T06:43:39;0.60;45.90
3736;DHT22;1883;48.202;16.310;2024-01-07T06:46:07;0.70;45.90
3736;DHT22;1883;48.202;16.310;2024-01-07T06:48:34;0.60;45.90
3736;DHT22;1883;48.202;16.310;2024-01-07T06:51:00;0.60;46.10
3736;DHT22;1883;48.202;16.310;2024-01-07T06:53:28;0.60;46.20
3736;DHT22;1883;48.202;16.310;2024-01-07T06:55:56;0.60;46.10
3736;DHT22;1883;48.202;16.310;2024-01-07T06:58:23;0.60;46.20
3736;DHT22;1883;48.202;16.310;2024-01-07T07:00:52;0.50;46.20
3736;DHT22;1883;48.202;16.310;2024-01-07T07:03:22;0.60;46.20
3736;DHT22;1883;48.202;16.310;2024-01-07T07:05:49;0.50;46.30
3736;DHT22;1883;48.202;16.310;2024-01-07T07:08:17;0.50;46.30
3736;DHT22;1883;48.202;16.310;2024-01-07T07:10:44;0.40;46.20
3736;DHT22;1883;48.202;16.310;2024-01-07T07:13:12;0.30;46.30
3736;DHT22;1883;48.202;16.310;2024-01-07T07:15:39;0.30;46.10
3736;DHT22;1883;48.202;16.310;2024-01-07T07:18:08;0.20;46.00
3736;DHT22;1883;48.202;16.310;2024-01-07T07:20:35;0.10;45.70
3736;DHT22;1883;48.202;16.310;2024-01-07T07:23:02;0.10;45.50
3736;DHT22;1883;48.202;16.310;2024-01-07T07:25:31;0.10;45.20
3736;DHT22;1883;48.202;16.310;2024-01-07T07:27:59;0.10;45.10
3736;DHT22;1883;48.202;16.310;2024-01-07T07:30:31;0.10;44.90
3736;DHT22;1883;48.202;16.310;2024-01-07T07:33:00;0.10;44.90
3736;DHT22;1883;48.202;16.310;2024-01-07T07:35:52;0.10;44.80
3736;DHT22;1883;48.202;16.310;2024-01-07T07:38:21;0.10;44.80
3736;DHT22;1883;48.202;16.310;2024-01-07T07:40:57;0.10;44.70
3736;DHT22;1883;48.202;16.310;2024-01-07T07:43:38;0.10;44.60
3736;DHT22;1883;48.202;16.310;2024-01-07T07:46:19;0.10;44.40
3736;DHT22;1883;48.202;16.310;2024-01-07T07:48:48;0.10;44.40
3736;DHT22;1883;48.202;16.310;2024-01-07T07:51:16;0.20;44.40
3736;DHT22;1883;48.202;16.310;2024-01-07T07:53:59;0.20;44.30
3736;DHT22;1883;48.202;16.310;2024-01-07T07:56:26;0.20;44.40
3736;DHT22;1883;48.202;16.310;2024-01-07T07:59:10;0.20;44.30
3736;DHT22;1883;48.202;16.310;2024-01-07T08:01:37;0.10;44.30
3736;DHT22;1883;48.202;16.310;2024-01-07T08:04:20;0.00;44.40
3736;DHT22;1883;48.202;16.310;2024-01-07T08:06:51;0.00;44.50
3736;DHT22;1883;48.202;16.310;2024-01-07T08:09:19;0.00;44.50
3736;DHT22;1883;48.202;16.310;2024-01-07T08:11:56;0.00;44.60
3736;DHT22;1883;48.202;16.310;2024-01-07T08:14:24;0.10;44.80
3736;DHT22;1883;48.202;16.310;2024-01-07T08:16:58;0.10;44.90
3736;DHT22;1883;48.202;16.310;2024-01-07T08:19:42;0.20;44.90
3736;DHT22;1883;48.202;16.310;2024-01-07T08:22:32;0.10;44.90
3736;DHT22;1883;48.202;16.310;2024-01-07T08:25:15;0.20;44.90
3736;DHT22;1883;48.202;16.310;2024-01-07T08:27:48;0.20;44.80
3736;DHT22;1883;48.202;16.310;2024-01-07T08:30:30;0.30;44.80
3736;DHT22;1883;48.202;16.310;2024-01-07T08:33:28;0.20;44.90
3736;DHT22;1883;48.202;16.310;2024-01-07T08:36:23;0.20;44.90
3736;DHT22;1883;48.202;16.310;2024-01-07T08:52:24;0.00;45.20
3736;DHT22;1883;48.202;16.310;2024-01-07T08:54:59;0.00;45.20
3736;DHT22;1883;48.202;16.310;2024-01-07T08:58:10;0.00;45.30
3736;DHT22;1883;48.202;16.310;2024-01-07T09:01:28;0.10;45.30
3736;DHT22;1883;48.202;16.310;2024-01-07T09:04:00;0.20;45.30
3736;DHT22;1883;48.202;16.310;2024-01-07T09:11:58;0.20;45.40
3736;DHT22;1883;48.202;16.310;2024-01-07T09:14:47;0.20;45.30
3736;DHT22;1883;48.202;16.310;2024-01-07T09:17:32;0.10;45.20
3736;DHT22;1883;48.202;16.310;2024-01-07T09:20:14;0.20;45.20
3736;DHT22;1883;48.202;16.310;2024-01-07T09:22:51;0.20;45.00
3736;DHT22;1883;48.202;16.310;2024-01-07T09:25:41;0.20;44.80
3736;DHT22;1883;48.202;16.310;2024-01-07T09:32:10;0.10;44.80
3736;DHT22;1883;48.202;16.310;2024-01-07T09:34:52;0.10;44.80
3736;DHT22;1883;48.202;16.310;2024-01-07T11:41:53;0.30;48.80
3736;DHT22;1883;48.202;16.310;2024-01-07T11:44:26;0.20;48.70
3736;DHT22;1883;48.202;16.310;2024-01-07T11:47:05;0.20;48.70
3736;DHT22;1883;48.202;16.310;2024-01-07T11:49:52;0.20;48.90
3736;DHT22;1883;48.202;16.310;2024-01-07T11:52:34;0.20;48.90
3736;DHT22;1883;48.202;16.310;2024-01-07T11:55:29;0.10;49.10
3736;DHT22;1883;48.202;16.310;2024-01-07T12:01:46;0.10;49.00
3736;DHT22;1883;48.202;16.310;2024-01-07T12:04:34;0.10;48.80
3736;DHT22;1883;48.202;16.310;2024-01-07T12:10:15;0.10;48.90
3736;DHT22;1883;48.202;16.310;2024-01-07T12:33:33;0.20;48.70
3736;DHT22;1883;48.202;16.310;2024-01-07T12:36:04;0.20;48.30
3736;DHT22;1883;48.202;16.310;2024-01-07T12:38:50;0.10;48.10
3736;DHT22;1883;48.202;16.310;2024-01-07T12:41:32;0.10;47.80
3736;DHT22;1883;48.202;16.310;2024-01-07T12:44:11;0.20;47.50
3736;DHT22;1883;48.202;16.310;2024-01-07T12:46:55;0.20;47.50
3736;DHT22;1883;48.202;16.310;2024-01-07T12:49:26;0.20;47.30
3736;DHT22;1883;48.202;16.310;2024-01-07T12:51:56;0.10;47.20
3736;DHT22;1883;48.202;16.310;2024-01-07T12:54:37;0.20;47.10
3736;DHT22;1883;48.202;16.310;2024-01-07T12:57:10;0.10;46.90
3736;DHT22;1883;48.202;16.310;2024-01-07T12:59:59;0.20;47.00
3736;DHT22;1883;48.202;16.310;2024-01-07T13:02:27;0.10;46.80
3736;DHT22;1883;48.202;16.310;2024-01-07T13:05:07;0.10;46.70
3736;DHT22;1883;48.202;16.310;2024-01-07T13:07:34;0.10;46.70
3736;DHT22;1883;48.202;16.310;2024-01-07T13:10:13;0.10;46.60
3736;DHT22;1883;48.202;16.310;2024-01-07T13:12:45;0.10;46.60
3736;DHT22;1883;48.202;16.310;2024-01-07T13:15:16;0.00;46.60
3736;DHT22;1883;48.202;16.310;2024-01-07T13:17:43;0.00;46.50
3736;DHT22;1883;48.202;16.310;2024-01-07T13:20:16;0.00;46.50
3736;DHT22;1883;48.202;16.310;2024-01-07T13:22:47;0.00;46.50
3736;DHT22;1883;48.202;16.310;2024-01-07T13:25:20;0.00;46.50
3736;DHT22;1883;48.202;16.310;2024-01-07T13:27:55;0.00;46.60
3736;DHT22;1883;48.202;16.310;2024-01-07T13:30:34;0.00;46.70
3736;DHT22;1883;48.202;16.310;2024-01-07T13:33:06;0.00;46.70
3736;DHT22;1883;48.202;16.310;2024-01-07T13:35:49;0.00;46.80
3736;DHT22;1883;48.202;16.310;2024-01-07T13:38:19;0.00;46.90
3736;DHT22;1883;48.202;16.310;2024-01-07T13:40:48;-0.10;47.00
3736;DHT22;1883;48.202;16.310;2024-01-07T13:43:32;-0.10;47.20
3736;DHT22;1883;48.202;16.310;2024-01-07T13:46:05;-0.10;47.40
3736;DHT22;1883;48.202;16.310;2024-01-07T13:48:35;-0.10;47.50
3736;DHT22;1883;48.202;16.310;2024-01-07T13:51:16;-0.10;47.30
3736;DHT22;1883;48.202;16.310;2024-01-07T13:53:45;0.00;47.20
3736;DHT22;1883;48.202;16.310;2024-01-07T13:56:13;-0.10;47.20
3736;DHT22;1883;48.202;16.310;2024-01-07T13:58:40;-0.10;47.20
3736;DHT22;1883;48.202;16.310;2024-01-07T14:01:16;0.00;47.30
3736;DHT22;1883;48.202;16.310;2024-01-07T14:03:46;-0.10;47.50
3736;DHT22;1883;48.202;16.310;2024-01-07T14:06:37;-0.10;47.50
3736;DHT22;1883;48.202;16.310;2024-01-07T14:09:09;-0.10;47.50
3736;DHT22;1883;48.202;16.310;2024-01-07T14:11:40;-0.20;47.70
3736;DHT22;1883;48.202;16.310;2024-01-07T14:14:11;-0.10;47.70
3736;DHT22;1883;48.202;16.310;2024-01-07T14:16:40;-0.10;47.80
3736;DHT22;1883;48.202;16.310;2024-01-07T14:19:11;-0.10;47.90
3736;DHT22;1883;48.202;16.310;2024-01-07T14:22:09;-0.10;48.00
3736;DHT22;1883;48.202;16.310;2024-01-07T14:25:01;-0.10;48.10
3736;DHT22;1883;48.202;16.310;2024-01-07T14:28:07;-0.10;48.10
3736;DHT22;1883;48.202;16.310;2024-01-07T14:30:51;-0.10;47.90
3736;DHT22;1883;48.202;16.310;2024-01-07T14:33:34;-0.20;48.00
3736;DHT22;1883;48.202;16.310;2024-01-07T14:36:26;-0.10;48.10
3736;DHT22;1883;48.202;16.310;2024-01-07T14:39:06;-0.10;48.40
3736;DHT22;1883;48.202;16.310;2024-01-07T14:41:47;-0.10;48.50
3736;DHT22;1883;48.202;16.310;2024-01-07T14:44:22;-0.10;48.50
3736;DHT22;1883;48.202;16.310;2024-01-07T14:46:50;-0.10;48.60
3736;DHT22;1883;48.202;16.310;2024-01-07T14:49:37;-0.30;48.60
3736;DHT22;1883;48.202;16.310;2024-01-07T14:52:06;-0.20;48.60
3736;DHT22;1883;48.202;16.310;2024-01-07T14:54:36;-0.20;48.70
3736;DHT22;1883;48.202;16.310;2024-01-07T14:57:05;-0.10;48.80
3736;DHT22;1883;48.202;16.310;2024-01-07T14:59:41;-0.20;48.80
3736;DHT22;1883;48.202;16.310;2024-01-07T15:02:23;-0.20;48.60
3736;DHT22;1883;48.202;16.310;2024-01-07T15:05:00;-0.10;48.40
3736;DHT22;1883;48.202;16.310;2024-01-07T15:07:43;-0.20;48.40
3736;DHT22;1883;48.202;16.310;2024-01-07T15:10:18;-0.10;48.40
3736;DHT22;1883;48.202;16.310;2024-01-07T15:12:45;-0.10;48.50
3736;DHT22;1883;48.202;16.310;2024-01-07T15:15:14;-0.10;48.50
3736;DHT22;1883;48.202;16.310;2024-01-07T15:17:41;-0.20;48.50
3736;DHT22;1883;48.202;16.310;2024-01-07T15:20:12;-0.10;48.70
3736;DHT22;1883;48.202;16.310;2024-01-07T15:22:55;-0.10;48.80
3736;DHT22;1883;48.202;16.310;2024-01-07T15:25:30;-0.10;48.80
3736;DHT22;1883;48.202;16.310;2024-01-07T15:28:33;-0.10;49.00
3736;DHT22;1883;48.202;16.310;2024-01-07T15:31:09;-0.10;49.30
3736;DHT22;1883;48.202;16.310;2024-01-07T15:33:50;-0.10;49.40
3736;DHT22;1883;48.202;16.310;2024-01-07T15:36:22;-0.10;49.50
3736;DHT22;1883;48.202;16.310;2024-01-07T15:38:51;-0.20;49.20
3736;DHT22;1883;48.202;16.310;2024-01-07T15:41:36;-0.20;49.20
3736;DHT22;1883;48.202;16.310;2024-01-07T15:44:10;-0.10;49.00
3736;DHT22;1883;48.202;16.310;2024-01-07T15:46:45;-0.10;49.00
3736;DHT22;1883;48.202;16.310;2024-01-07T15:49:20;-0.10;49.00
3736;DHT22;1883;48.202;16.310;2024-01-07T15:51:56;-0.10;49.10
3736;DHT22;1883;48.202;16.310;2024-01-07T15:54:23;-0.10;49.20
3736;DHT22;1883;48.202;16.310;2024-01-07T16:00:15;-0.10;49.50
3736;DHT22;1883;48.202;16.310;2024-01-07T16:03:00;-0.10;49.60
3736;DHT22;1883;48.202;16.310;2024-01-07T16:05:34;-0.20;49.90
3736;DHT22;1883;48.202;16.310;2024-01-07T16:08:04;-0.10;50.00
3736;DHT22;1883;48.202;16.310;2024-01-07T16:10:35;-0.20;49.90
3736;DHT22;1883;48.202;16.310;2024-01-07T16:13:06;-0.20;50.10
3736;DHT22;1883;48.202;16.310;2024-01-07T16:18:36;-0.20;50.60
3736;DHT22;1883;48.202;16.310;2024-01-07T16:21:14;-0.20;50.60
3736;DHT22;1883;48.202;16.310;2024-01-07T16:24:17;-0.20;51.00
3736;DHT22;1883;48.202;16.310;2024-01-07T16:27:05;-0.20;51.20
3736;DHT22;1883;48.202;16.310;2024-01-07T16:29:39;-0.20;51.50
3736;DHT22;1883;48.202;16.310;2024-01-07T16:32:20;-0.20;51.70
3736;DHT22;1883;48.202;16.310;2024-01-07T16:35:03;-0.30;52.10
3736;DHT22;1883;48.202;16.310;2024-01-07T16:37:32;-0.20;52.20
3736;DHT22;1883;48.202;16.310;2024-01-07T16:40:04;-0.30;52.50
3736;DHT22;1883;48.202;16.310;2024-01-07T16:42:38;-0.30;52.80
3736;DHT22;1883;48.202;16.310;2024-01-07T16:45:06;-0.30;52.80
3736;DHT22;1883;48.202;16.310;2024-01-07T16:47:46;-0.30;53.10
3736;DHT22;1883;48.202;16.310;2024-01-07T16:50:58;-0.40;53.50
3736;DHT22;1883;48.202;16.310;2024-01-07T16:53:28;-0.40;53.50
3736;DHT22;1883;48.202;16.310;2024-01-07T16:55:59;-0.30;53.70
3736;DHT22;1883;48.202;16.310;2024-01-07T16:58:27;-0.40;53.60
3736;DHT22;1883;48.202;16.310;2024-01-07T17:01:15;-0.40;53.60
3736;DHT22;1883;48.202;16.310;2024-01-07T17:03:44;-0.40;54.00
3736;DHT22;1883;48.202;16.310;2024-01-07T17:06:41;-0.40;54.10
3736;DHT22;1883;48.202;16.310;2024-01-07T17:09:10;-0.40;54.50
3736;DHT22;1883;48.202;16.310;2024-01-07T17:11:37;-0.40;54.60
3736;DHT22;1883;48.202;16.310;2024-01-07T17:14:13;-0.20;54.50
3736;DHT22;1883;48.202;16.310;2024-01-07T17:16:40;-0.40;55.10
3736;DHT22;1883;48.202;16.310;2024-01-07T17:19:30;-0.50;55.30
3736;DHT22;1883;48.202;16.310;2024-01-07T17:22:50;-0.50;55.60
3736;DHT22;1883;48.202;16.310;2024-01-07T17:25:51;-0.50;55.90
3736;DHT22;1883;48.202;16.310;2024-01-07T17:28:50;-0.50;56.00
3736;DHT22;1883;48.202;16.310;2024-01-07T17:43:30;-0.60;56.70
3736;DHT22;1883;48.202;16.310;2024-01-07T17:46:33;-0.60;56.80
3736;DHT22;1883;48.202;16.310;2024-01-07T17:49:19;-0.60;57.00
3736;DHT22;1883;48.202;16.310;2024-01-07T17:52:16;-0.60;57.20
3736;DHT22;1883;48.202;16.310;2024-01-07T17:55:16;-0.60;57.20
3736;DHT22;1883;48.202;16.310;2024-01-07T17:57:57;-0.60;57.40
3736;DHT22;1883;48.202;16.310;2024-01-07T18:00:56;-0.60;57.40
3736;DHT22;1883;48.202;16.310;2024-01-07T18:03:25;-0.60;57.40
3736;DHT22;1883;48.202;16.310;2024-01-07T18:06:10;-0.60;57.60
3736;DHT22;1883;48.202;16.310;2024-01-07T18:08:40;-0.60;57.60
3736;DHT22;1883;48.202;16.310;2024-01-07T18:11:11;-0.50;57.60
3736;DHT22;1883;48.202;16.310;2024-01-07T18:13:59;-0.70;57.70
3736;DHT22;1883;48.202;16.310;2024-01-07T18:23:45;-0.60;58.10
3736;DHT22;1883;48.202;16.310;2024-01-07T18:26:28;-0.70;58.00
3736;DHT22;1883;48.202;16.310;2024-01-07T18:29:02;-0.70;58.00
3736;DHT22;1883;48.202;16.310;2024-01-07T18:31:40;-0.70;58.10
3736;DHT22;1883;48.202;16.310;2024-01-07T18:34:11;-0.80;58.20
3736;DHT22;1883;48.202;16.310;2024-01-07T18:36:48;-0.80;58.40
3736;DHT22;1883;48.202;16.310;2024-01-07T18:39:33;-0.80;58.40
3736;DHT22;1883;48.202;16.310;2024-01-07T18:42:05;-0.80;58.40
3736;DHT22;1883;48.202;16.310;2024-01-07T18:44:37;-0.80;58.50
3736;DHT22;1883;48.202;16.310;2024-01-07T18:47:36;-0.80;58.40
3736;DHT22;1883;48.202;16.310;2024-01-07T18:50:36;-0.80;58.60
3736;DHT22;1883;48.202;16.310;2024-01-07T18:53:14;-0.80;58.70
3736;DHT22;1883;48.202;16.310;2024-01-07T18:59:02;-0.90;59.00
3736;DHT22;1883;48.202;16.310;2024-01-07T19:01:36;-0.90;58.90
3736;DHT22;1883;48.202;16.310;2024-01-07T19:04:19;-0.90;59.00
3736;DHT22;1883;48.202;16.310;2024-01-07T19:07:28;-0.90;59.20
3736;DHT22;1883;48.202;16.310;2024-01-07T19:10:12;-0.90;59.20
3736;DHT22;1883;48.202;16.310;2024-01-07T19:13:10;-0.90;59.10
3736;DHT22;1883;48.202;16.310;2024-01-07T19:15:40;-1.00;59.20
3736;DHT22;1883;48.202;16.310;2024-01-07T19:18:26;-1.00;59.20
3736;DHT22;1883;48.202;16.310;2024-01-07T19:21:21;-1.00;59.50
3736;DHT22;1883;48.202;16.310;2024-01-07T19:24:07;-1.00;59.50
3736;DHT22;1883;48.202;16.310;2024-01-07T19:26:57;-0.90;59.50
3736;DHT22;1883;48.202;16.310;2024-01-07T19:29:53;-0.90;59.50
3736;DHT22;1883;48.202;16.310;2024-01-07T19:32:40;-0.90;59.70
3736;DHT22;1883;48.202;16.310;2024-01-07T19:38:13;-1.00;59.90
3736;DHT22;1883;48.202;16.310;2024-01-07T19:40:45;-1.00;60.10
3736;DHT22;1883;48.202;16.310;2024-01-07T19:43:35;-1.00;60.20
3736;DHT22;1883;48.202;16.310;2024-01-07T19:46:49;-1.10;60.10
3736;DHT22;1883;48.202;16.310;2024-01-07T19:49:54;-1.00;60.20
3736;DHT22;1883;48.202;16.310;2024-01-07T20:05:05;-1.10;60.40
3736;DHT22;1883;48.202;16.310;2024-01-07T20:07:47;-1.00;60.60
3736;DHT22;1883;48.202;16.310;2024-01-07T20:10:37;-1.10;60.60
3736;DHT22;1883;48.202;16.310;2024-01-07T20:39:51;-1.10;61.30
3736;DHT22;1883;48.202;16.310;2024-01-07T20:45:42;-1.20;61.40
3736;DHT22;1883;48.202;16.310;2024-01-07T20:52:31;-1.20;61.30
3736;DHT22;1883;48.202;16.310;2024-01-07T21:07:49;-1.30;61.60